createdAt,value
2018-01-11T00:00:37.720Z,36.05
2018-01-11T00:03:05.447Z,34.80
2018-01-11T00:05:33.240Z,33.83
2018-01-11T00:08:00.967Z,46.60
2018-01-11T00:10:28.691Z,39.72
2018-01-11T00:12:56.471Z,37.95
2018-01-11T00:15:24.967Z,38.63
2018-01-11T00:17:52.700Z,43.08
2018-01-11T00:20:21.253Z,33.75
2018-01-11T00:22:48.983Z,29.12
2018-01-11T00:25:16.721Z,27.33
2018-01-11T00:27:44.511Z,30.08
2018-01-11T00:30:12.256Z,31.00
2018-01-11T00:32:39.987Z,34.88
2018-01-11T00:35:08.537Z,32.85
2018-01-11T00:37:36.272Z,33.72
2018-01-11T00:40:04.000Z,37.72
2018-01-11T00:42:32.559Z,30.30
2018-01-11T00:45:00.298Z,37.95
2018-01-11T00:47:28.028Z,32.33
2018-01-11T00:49:55.852Z,34.72
2018-01-11T00:52:24.372Z,32.88
2018-01-11T00:54:52.094Z,32.67
2018-01-11T00:57:20.653Z,35.28
2018-01-11T00:59:48.383Z,35.70
2018-01-11T01:02:16.112Z,37.13
2018-01-11T01:04:44.664Z,38.00
2018-01-11T01:07:12.396Z,33.22
2018-01-11T01:09:40.131Z,33.88
2018-01-11T01:12:07.920Z,28.70
2018-01-11T01:14:35.661Z,29.48
2018-01-11T01:17:03.392Z,34.58
2018-01-11T01:19:31.943Z,31.87
2018-01-11T01:21:59.680Z,28.80
2018-01-11T01:24:27.408Z,33.60
2018-01-11T01:26:55.191Z,28.83
2018-01-11T01:29:22.920Z,32.88
2018-01-11T01:31:51.421Z,40.08
2018-01-11T01:34:19.216Z,34.15
2018-01-11T01:36:46.942Z,31.12
2018-01-11T01:39:14.724Z,38.53
2018-01-11T01:41:42.513Z,34.20
2018-01-11T01:44:10.251Z,33.03
2018-01-11T01:46:37.978Z,27.70
2018-01-11T01:49:05.838Z,31.10
2018-01-11T01:51:33.575Z,30.85
2018-01-11T01:54:01.304Z,31.90
2018-01-11T01:56:29.091Z,27.75
2018-01-11T01:58:56.815Z,31.37
2018-01-11T02:01:24.549Z,24.75
2018-01-11T02:03:52.330Z,27.48
2018-01-11T02:06:20.059Z,28.02
2018-01-11T02:08:48.554Z,27.35
2018-01-11T02:11:16.344Z,32.95
2018-01-11T02:13:44.072Z,27.10
2018-01-11T02:16:11.806Z,27.48
2018-01-11T02:18:39.627Z,30.23
2018-01-11T02:21:07.356Z,29.70
2018-01-11T02:23:35.088Z,29.10
2018-01-11T02:26:02.871Z,32.20
2018-01-11T02:28:31.359Z,30.12
2018-01-11T02:30:59.091Z,26.60
2018-01-11T02:33:27.648Z,29.73
2018-01-11T02:35:55.381Z,29.23
2018-01-11T02:38:23.114Z,29.60
2018-01-11T02:40:50.900Z,27.15
2018-01-11T02:43:19.537Z,31.42
2018-01-11T02:45:47.277Z,29.50
2018-01-11T02:48:15.063Z,30.48
2018-01-11T02:50:42.796Z,33.17
2018-01-11T02:53:10.524Z,29.30
2018-01-11T02:55:38.306Z,33.78
2018-01-11T02:58:06.032Z,33.53
2018-01-11T03:00:33.759Z,28.42
2018-01-11T03:03:01.548Z,28.95
2018-01-11T03:05:30.059Z,35.65
2018-01-11T03:07:57.790Z,35.40
2018-01-11T03:10:26.340Z,26.17
2018-01-11T03:12:54.072Z,32.42
2018-01-11T03:15:21.805Z,32.17
2018-01-11T03:17:49.584Z,45.88
2018-01-11T03:20:17.311Z,34.28
2018-01-11T03:22:45.871Z,31.27
2018-01-11T03:25:13.693Z,38.88
2018-01-11T03:27:41.422Z,35.13
2018-01-11T03:30:09.929Z,31.00
2018-01-11T03:32:37.712Z,30.27
2018-01-11T03:35:05.445Z,30.67
2018-01-11T03:37:33.184Z,30.27
2018-01-11T03:40:01.729Z,29.90
2018-01-11T03:42:29.455Z,26.83
2018-01-11T03:44:57.183Z,24.42
2018-01-11T03:47:25.732Z,20.20
2018-01-11T03:49:53.455Z,20.67
2018-01-11T03:52:21.204Z,24.52
2018-01-11T03:54:48.983Z,23.38
2018-01-11T03:57:16.727Z,29.20
2018-01-11T03:59:44.465Z,20.83
2018-01-11T04:02:13.011Z,20.92
2018-01-11T04:04:40.738Z,24.35
2018-01-11T04:07:08.513Z,19.60
2018-01-11T04:09:36.299Z,20.50
2018-01-11T04:12:04.034Z,23.75
2018-01-11T04:14:31.773Z,20.10
2018-01-11T04:16:59.563Z,24.27
2018-01-11T04:19:27.290Z,24.35
2018-01-11T04:21:55.021Z,19.40
2018-01-11T04:24:22.804Z,20.88
2018-01-11T04:26:51.298Z,22.77
2018-01-11T04:29:19.034Z,26.17
2018-01-11T04:31:47.591Z,19.12
2018-01-11T04:34:15.327Z,25.70
2018-01-11T04:36:43.056Z,19.67
2018-01-11T04:39:10.849Z,22.20
2018-01-11T04:41:38.585Z,27.00
2018-01-11T04:44:06.323Z,21.30
2018-01-11T04:46:35.028Z,27.10
2018-01-11T04:49:02.760Z,35.17
2018-01-11T04:51:31.261Z,38.40
2018-01-11T04:53:59.048Z,38.05
2018-01-11T04:56:26.795Z,35.53
2018-01-11T04:58:54.543Z,44.60
2018-01-11T05:01:22.356Z,42.25
2018-01-11T05:03:50.087Z,32.03
2018-01-11T05:06:17.819Z,30.10
2018-01-11T05:08:46.366Z,27.05
2018-01-11T05:11:14.114Z,31.67
2018-01-11T05:13:41.842Z,23.87
2018-01-11T05:16:09.628Z,22.52
2018-01-11T05:18:37.363Z,25.12
2018-01-11T05:21:05.088Z,26.62
2018-01-11T05:23:32.878Z,24.67
2018-01-11T05:26:00.607Z,28.65
2018-01-11T05:28:28.354Z,22.50
2018-01-11T05:30:56.140Z,31.30
2018-01-11T05:33:24.636Z,28.33
2018-01-11T05:35:53.134Z,23.92
2018-01-11T05:38:20.917Z,24.02
2018-01-11T05:40:48.643Z,28.23
2018-01-11T05:43:16.369Z,23.95
2018-01-11T05:45:44.150Z,53.75
2018-01-11T05:48:12.677Z,28.12
2018-01-11T05:50:40.404Z,35.42
2018-01-11T05:53:08.212Z,29.37
2018-01-11T05:55:35.936Z,32.58
2018-01-11T05:58:03.668Z,43.03
2018-01-11T06:00:32.220Z,42.83
2018-01-11T06:02:59.953Z,35.70
2018-01-11T06:05:27.686Z,24.98
2018-01-11T06:07:56.251Z,30.45
2018-01-11T06:10:24.744Z,27.45
2018-01-11T06:12:53.235Z,28.73
2018-01-11T06:15:21.875Z,25.73
2018-01-11T06:17:49.602Z,29.80
2018-01-11T06:20:17.350Z,32.85
2018-01-11T06:22:45.142Z,30.45
2018-01-11T06:25:12.878Z,36.03
2018-01-11T06:27:40.611Z,33.90
2018-01-11T06:30:09.164Z,33.15
2018-01-11T06:32:36.898Z,28.38
2018-01-11T06:35:04.633Z,31.87
2018-01-11T06:37:32.419Z,34.38
2018-01-11T06:40:00.162Z,30.88
2018-01-11T06:42:27.888Z,33.58
2018-01-11T06:44:56.439Z,29.35
2018-01-11T06:47:24.169Z,29.23
2018-01-11T06:49:51.895Z,37.30
2018-01-11T06:52:20.447Z,34.63
2018-01-11T06:54:48.180Z,34.10
2018-01-11T06:57:15.914Z,39.33
2018-01-11T06:59:43.695Z,41.20
2018-01-11T07:02:11.438Z,36.17
2018-01-11T07:04:39.175Z,40.78
2018-01-11T07:07:07.724Z,39.95
2018-01-11T07:09:35.478Z,40.22
2018-01-11T07:12:03.206Z,46.90
2018-01-11T07:14:30.987Z,57.42
2018-01-11T07:16:58.722Z,48.00
2018-01-11T07:19:26.466Z,38.95
2018-01-11T07:21:55.014Z,43.08
2018-01-11T07:24:22.743Z,45.50
2018-01-11T07:26:50.471Z,42.88
2018-01-11T07:29:19.030Z,41.13
2018-01-11T07:31:46.770Z,44.13
2018-01-11T07:34:14.538Z,41.67
2018-01-11T07:36:42.343Z,40.65
2018-01-11T07:39:10.081Z,42.13
2018-01-11T07:41:37.863Z,45.85
2018-01-11T07:44:06.414Z,37.75
2018-01-11T07:46:34.142Z,44.47
2018-01-11T07:49:01.873Z,41.53
2018-01-11T07:51:29.654Z,44.38
2018-01-11T07:53:57.382Z,48.28
2018-01-11T07:56:25.871Z,41.90
2018-01-11T07:58:54.420Z,38.50
2018-01-11T08:01:22.151Z,41.75
2018-01-11T08:03:49.888Z,36.58
2018-01-11T08:06:17.671Z,45.72
2018-01-11T08:08:45.409Z,41.70
2018-01-11T08:11:13.136Z,44.25
2018-01-11T08:13:40.927Z,50.60
2018-01-11T08:16:08.676Z,48.35
2018-01-11T08:18:37.170Z,50.38
2018-01-11T08:21:04.951Z,47.40
2018-01-11T08:23:32.680Z,55.85
2018-01-11T08:26:01.171Z,48.30
2018-01-11T08:28:28.956Z,58.70
2018-01-11T08:30:56.699Z,61.28
2018-01-11T08:33:24.454Z,52.55
2018-01-11T08:35:52.238Z,59.85
2018-01-11T08:38:19.974Z,48.83
2018-01-11T08:40:47.715Z,47.08
2018-01-11T08:43:16.279Z,51.22
2018-01-11T08:45:44.033Z,52.38
2018-01-11T08:48:11.767Z,42.88
2018-01-11T08:50:39.551Z,49.15
2018-01-11T08:53:07.280Z,52.47
2018-01-11T08:55:35.012Z,48.78
2018-01-11T08:58:03.570Z,42.13
2018-01-11T09:00:31.302Z,43.95
2018-01-11T09:02:59.042Z,42.42
2018-01-11T09:05:26.891Z,52.90
2018-01-11T09:07:54.628Z,59.03
2018-01-11T09:10:23.120Z,51.15
2018-01-11T09:12:51.667Z,54.00
2018-01-11T09:15:19.405Z,43.42
2018-01-11T09:17:47.137Z,47.45
2018-01-11T09:20:15.095Z,41.88
2018-01-11T09:22:42.852Z,41.95
2018-01-11T09:25:11.661Z,43.90
2018-01-11T09:27:39.454Z,35.40
2018-01-11T09:30:07.183Z,39.90
2018-01-11T09:32:34.915Z,31.90
2018-01-11T09:35:03.492Z,32.95
2018-01-11T09:37:31.634Z,32.38
2018-01-11T09:39:59.542Z,36.03
2018-01-11T09:42:28.399Z,32.42
2018-01-11T09:44:56.147Z,35.67
2018-01-11T09:47:23.877Z,37.33
2018-01-11T09:49:51.665Z,35.90
2018-01-11T09:52:19.400Z,38.00
2018-01-11T09:54:47.145Z,32.03
2018-01-11T09:57:15.580Z,34.97
2018-01-11T09:59:44.104Z,37.42
2018-01-11T10:02:11.889Z,38.65
2018-01-11T10:04:39.671Z,31.08
2018-01-11T10:07:07.772Z,31.77
2018-01-11T10:09:35.608Z,25.85
2018-01-11T10:12:03.589Z,24.00
2018-01-11T10:14:32.218Z,24.40
2018-01-11T10:16:59.960Z,26.73
2018-01-11T10:19:27.743Z,27.45
2018-01-11T10:21:55.471Z,24.83
2018-01-11T10:24:23.975Z,25.50
2018-01-11T10:26:52.494Z,40.30
2018-01-11T10:29:20.372Z,31.67
2018-01-11T10:31:48.117Z,22.20
2018-01-11T10:34:15.900Z,23.80
2018-01-11T10:36:43.624Z,26.55
2018-01-11T10:39:11.406Z,34.28
2018-01-11T10:41:39.305Z,30.37
2018-01-11T10:44:07.868Z,31.42
2018-01-11T10:46:35.614Z,36.63
2018-01-11T10:49:03.399Z,36.08
2018-01-11T10:51:31.132Z,34.70
2018-01-11T10:53:59.632Z,46.92
2018-01-11T10:56:27.416Z,46.58
2018-01-11T10:58:55.950Z,45.90
2018-01-11T11:01:29.319Z,43.53
2018-01-11T11:03:57.044Z,46.97
2018-01-11T11:06:25.535Z,46.15
2018-01-11T11:08:53.321Z,49.03
2018-01-11T11:11:21.054Z,51.00
2018-01-11T11:13:49.548Z,46.75
2018-01-11T11:16:17.342Z,49.97
2018-01-11T11:18:45.081Z,42.47
2018-01-11T11:21:12.823Z,42.53
2018-01-11T11:23:40.607Z,46.42
2018-01-11T11:26:08.340Z,41.35
2018-01-11T11:28:37.390Z,40.58
2018-01-11T11:31:05.184Z,43.28
2018-01-11T11:33:32.916Z,50.92
2018-01-11T11:36:01.461Z,49.88
2018-01-11T11:38:29.338Z,50.15
2018-01-11T11:40:57.092Z,44.95
2018-01-11T11:43:24.845Z,48.92
2018-01-11T11:45:52.636Z,59.78
2018-01-11T11:48:20.370Z,60.60
2018-01-11T11:50:48.278Z,49.45
2018-01-11T11:53:16.856Z,43.92
2018-01-11T11:55:44.585Z,48.60
2018-01-11T11:58:12.317Z,48.25
2018-01-11T12:00:40.905Z,45.70
2018-01-11T12:03:11.579Z,52.13
2018-01-11T12:05:39.387Z,50.33
2018-01-11T12:08:07.934Z,46.33
2018-01-11T12:10:35.658Z,37.63
2018-01-11T12:13:03.429Z,46.70
2018-01-11T12:15:31.212Z,45.60
2018-01-11T12:17:58.936Z,44.03
2018-01-11T12:20:26.680Z,44.08
2018-01-11T12:22:54.469Z,42.20
2018-01-11T12:25:22.211Z,49.05
2018-01-11T12:27:50.074Z,46.30
2018-01-11T12:30:17.867Z,38.85
2018-01-11T12:32:45.590Z,40.42
2018-01-11T12:35:13.320Z,51.42
2018-01-11T12:37:41.099Z,50.53
2018-01-11T12:40:09.590Z,48.05
2018-01-11T12:42:38.094Z,44.75
2018-01-11T12:45:05.884Z,43.45
2018-01-11T12:47:33.654Z,44.08
2018-01-11T12:50:01.389Z,47.90
2018-01-11T12:52:29.175Z,41.83
2018-01-11T12:54:57.003Z,47.88
2018-01-11T12:57:24.735Z,48.50
2018-01-11T12:59:53.284Z,51.45
2018-01-11T13:02:21.020Z,58.60
2018-01-11T13:04:48.746Z,58.90
2018-01-11T13:07:16.532Z,66.12
2018-01-11T13:09:44.258Z,61.47
2018-01-11T13:12:13.826Z,60.45
2018-01-11T13:14:41.616Z,62.90
2018-01-11T13:17:10.884Z,52.30
2018-01-11T13:19:38.620Z,53.55
2018-01-11T13:22:06.409Z,54.65
2018-01-11T13:24:34.151Z,55.28
2018-01-11T13:27:01.884Z,57.45
2018-01-11T13:29:29.720Z,53.92
2018-01-11T13:31:58.215Z,57.72
2018-01-11T13:34:26.732Z,65.65
2018-01-11T13:36:54.582Z,59.05
2018-01-11T13:39:22.384Z,58.17
2018-01-11T13:41:50.116Z,68.87
2018-01-11T13:44:17.916Z,64.47
2018-01-11T13:46:45.718Z,53.67
2018-01-11T13:49:13.469Z,58.97
2018-01-11T13:51:41.268Z,66.37
2018-01-11T13:54:09.057Z,64.70
2018-01-11T13:56:36.811Z,59.75
2018-01-11T13:59:05.403Z,57.53
2018-01-11T14:01:33.145Z,66.07
2018-01-11T14:04:00.884Z,53.55
2018-01-11T14:06:28.690Z,63.90
2018-01-11T14:08:56.436Z,75.70
2018-01-11T14:11:24.231Z,71.80
2018-01-11T14:13:52.803Z,61.47
2018-01-11T14:16:20.569Z,64.28
2018-01-11T14:18:49.078Z,61.85
2018-01-11T14:21:16.879Z,76.85
2018-01-11T14:23:45.442Z,63.00
2018-01-11T14:26:13.974Z,72.20
2018-01-11T14:28:42.536Z,68.57
2018-01-11T14:31:10.292Z,69.40
2018-01-11T14:33:38.030Z,69.82
2018-01-11T14:36:05.824Z,75.78
2018-01-11T14:38:33.576Z,68.37
2018-01-11T14:41:01.318Z,72.78
2018-01-11T14:43:29.117Z,66.70
2018-01-11T14:45:56.861Z,65.10
2018-01-11T14:48:24.596Z,67.05
2018-01-11T14:50:52.395Z,80.03
2018-01-11T14:53:20.134Z,78.70
2018-01-11T14:55:47.883Z,69.47
2018-01-11T14:58:15.695Z,90.20
2018-01-11T15:00:44.204Z,87.15
2018-01-11T15:03:11.946Z,92.40
2018-01-11T15:05:40.508Z,85.65
2018-01-11T15:08:08.262Z,97.80
2018-01-11T15:10:36.020Z,83.62
2018-01-11T15:13:03.818Z,85.53
2018-01-11T15:15:31.559Z,93.80
2018-01-11T15:18:00.081Z,99.15
2018-01-11T15:20:27.884Z,100.43
2018-01-11T15:22:55.633Z,123.85
2018-01-11T15:25:23.422Z,119.28
2018-01-11T15:27:52.021Z,104.45
2018-01-11T15:30:19.780Z,120.28
2018-01-11T15:32:48.303Z,134.12
2018-01-11T15:35:16.107Z,123.10
2018-01-11T15:37:44.624Z,127.93
2018-01-11T15:40:12.365Z,121.75
2018-01-11T15:42:40.164Z,117.00
2018-01-11T15:45:07.904Z,121.43
2018-01-11T15:47:35.650Z,119.75
2018-01-11T15:50:04.228Z,128.87
2018-01-11T15:52:32.752Z,137.95
2018-01-11T15:55:01.267Z,110.43
2018-01-11T15:57:29.063Z,115.30
2018-01-11T15:59:56.803Z,98.00
2018-01-11T16:02:25.325Z,107.97
2018-01-11T16:04:53.165Z,117.62
2018-01-11T16:07:20.907Z,120.15
2018-01-11T16:09:49.415Z,117.62
2018-01-11T16:12:17.264Z,118.00
2018-01-11T16:14:45.780Z,101.55
2018-01-11T16:17:13.524Z,95.80
2018-01-11T16:19:41.334Z,103.10
2018-01-11T16:22:09.072Z,94.05
2018-01-11T16:24:36.838Z,97.78
2018-01-11T16:27:04.643Z,114.03
2018-01-11T16:29:33.165Z,118.18
2018-01-11T16:32:00.908Z,98.07
2018-01-11T16:34:28.711Z,116.72
2018-01-11T16:36:57.266Z,115.57
2018-01-11T16:39:25.021Z,123.05
2018-01-11T16:41:52.822Z,113.88
2018-01-11T16:44:20.565Z,115.35
2018-01-11T16:46:48.327Z,138.80
2018-01-11T16:49:16.128Z,126.00
2018-01-11T16:51:44.642Z,138.45
2018-01-11T16:54:12.451Z,137.93
2018-01-11T16:56:40.249Z,143.40
2018-01-11T16:59:08.751Z,152.20
2018-01-11T17:01:36.497Z,144.57
2018-01-11T17:04:04.283Z,132.90
2018-01-11T17:06:32.022Z,143.98
2018-01-11T17:08:59.780Z,139.62
2018-01-11T17:11:27.600Z,132.30
2018-01-11T17:13:55.395Z,148.40
2018-01-11T17:16:23.992Z,148.68
2018-01-11T17:18:55.790Z,175.15
2018-01-11T17:21:24.149Z,166.95
2018-01-11T17:23:51.912Z,182.27
2018-01-11T17:26:20.539Z,183.82
2018-01-11T17:28:48.403Z,187.35
2018-01-11T17:31:16.213Z,174.05
2018-01-11T17:33:44.059Z,221.35
2018-01-11T17:36:12.233Z,214.40
2018-01-11T17:38:40.050Z,208.98
2018-01-11T17:41:08.067Z,197.37
2018-01-11T17:43:35.875Z,177.87
2018-01-11T17:46:03.705Z,182.73
2018-01-11T17:48:32.110Z,191.32
2018-01-11T17:50:59.873Z,185.77
2018-01-11T17:53:27.650Z,196.00
2018-01-11T17:55:55.468Z,219.37
2018-01-11T17:58:23.209Z,221.75
2018-01-11T18:00:50.984Z,219.93
2018-01-11T18:03:21.924Z,217.77
2018-01-11T18:05:49.759Z,208.45
2018-01-11T18:08:18.316Z,198.38
2018-01-11T18:10:46.826Z,229.52
2018-01-11T18:13:16.706Z,193.15
2018-01-11T18:15:45.883Z,214.30
2018-01-11T18:18:14.809Z,253.20
2018-01-11T18:20:42.612Z,228.77
2018-01-11T18:23:10.400Z,233.68
2018-01-11T18:25:38.200Z,236.52
2018-01-11T18:28:06.196Z,250.68
2018-01-11T18:30:34.006Z,245.98
2018-01-11T18:33:01.836Z,233.23
2018-01-11T18:35:29.735Z,255.48
2018-01-11T18:37:57.931Z,249.25
2018-01-11T18:40:32.239Z,246.90
2018-01-11T18:43:00.913Z,254.43
2018-01-11T18:45:28.760Z,262.52
2018-01-11T18:47:57.561Z,261.20
2018-01-11T18:50:26.896Z,273.10
2018-01-11T18:52:54.691Z,258.45
2018-01-11T18:55:22.687Z,265.55
2018-01-11T18:57:50.564Z,245.48
2018-01-11T19:00:19.125Z,227.98
2018-01-11T19:02:47.707Z,252.07
2018-01-11T19:05:15.500Z,221.18
2018-01-11T19:07:43.764Z,234.48
2018-01-11T19:10:11.616Z,202.85
2018-01-11T19:12:39.348Z,216.38
2018-01-11T19:15:07.172Z,229.07
2018-01-11T19:17:36.782Z,207.35
2018-01-11T19:20:04.615Z,205.07
2018-01-11T19:22:33.141Z,240.82
2018-01-11T19:25:01.016Z,220.52
2018-01-11T19:27:28.767Z,225.75
2018-01-11T19:29:56.544Z,222.32
2018-01-11T19:32:24.352Z,190.55
2018-01-11T19:34:52.858Z,194.15
2018-01-11T19:37:20.602Z,211.23
2018-01-11T19:39:48.408Z,245.40
2018-01-11T19:42:16.164Z,245.63
2018-01-11T19:44:43.908Z,224.10
2018-01-11T19:47:11.705Z,234.02
2018-01-11T19:49:39.464Z,221.90
2018-01-11T19:52:07.248Z,209.55
2018-01-11T19:54:35.309Z,229.27
2018-01-11T19:57:03.090Z,224.43
2018-01-11T19:59:31.609Z,208.60
2018-01-11T20:01:59.408Z,222.32
2018-01-11T20:04:27.160Z,221.15
2018-01-11T20:06:55.070Z,231.10
2018-01-11T20:09:23.086Z,214.45
2018-01-11T20:11:50.987Z,186.45
2018-01-11T20:14:18.753Z,203.57
2018-01-11T20:16:47.338Z,174.10
2018-01-11T20:19:15.840Z,172.85
2018-01-11T20:21:43.648Z,209.35
2018-01-11T20:24:11.445Z,182.10
2018-01-11T20:26:39.191Z,220.10
2018-01-11T20:29:07.723Z,192.43
2018-01-11T20:31:35.537Z,222.02
2018-01-11T20:34:04.056Z,202.95
2018-01-11T20:36:31.811Z,213.20
2018-01-11T20:38:59.620Z,206.25
2018-01-11T20:41:27.365Z,183.00
2018-01-11T20:43:55.118Z,221.75
2018-01-11T20:46:22.917Z,206.60
2018-01-11T20:48:50.697Z,192.77
2018-01-11T20:51:19.342Z,165.95
2018-01-11T20:53:47.232Z,144.10
2018-01-11T20:56:15.915Z,139.37
2018-01-11T20:58:44.420Z,141.55
2018-01-11T21:01:12.221Z,154.73
2018-01-11T21:03:39.968Z,144.23
2018-01-11T21:06:07.707Z,143.55
2018-01-11T21:08:35.529Z,150.48
2018-01-11T21:11:03.292Z,167.13
2018-01-11T21:13:31.037Z,150.35
2018-01-11T21:15:58.850Z,158.75
2018-01-11T21:18:26.588Z,167.57
2018-01-11T21:20:55.151Z,148.70
2018-01-11T21:23:22.934Z,175.45
2018-01-11T21:25:51.454Z,144.15
2018-01-11T21:28:19.201Z,145.35
2018-01-11T21:30:47.016Z,174.98
2018-01-11T21:33:14.748Z,155.40
2018-01-11T21:35:42.491Z,150.82
2018-01-11T21:38:10.300Z,146.00
2018-01-11T21:40:38.056Z,150.35
2018-01-11T21:43:05.795Z,131.43
2018-01-11T21:45:33.614Z,148.45
2018-01-11T21:48:02.146Z,134.98
2018-01-11T21:50:30.671Z,124.28
2018-01-11T21:52:59.241Z,130.15
2018-01-11T21:55:26.985Z,131.98
2018-01-11T21:57:54.729Z,122.43
2018-01-11T22:00:22.525Z,110.20
2018-01-11T22:02:50.264Z,104.68
2018-01-11T22:05:18.000Z,86.75
2018-01-11T22:07:45.797Z,96.22
2018-01-11T22:10:13.538Z,99.18
2018-01-11T22:12:41.299Z,100.97
2018-01-11T22:15:09.096Z,88.82
2018-01-11T22:17:37.608Z,82.80
2018-01-11T22:20:05.354Z,87.57
2018-01-11T22:22:33.919Z,92.18
2018-01-11T22:25:01.661Z,93.87
2018-01-11T22:27:29.401Z,91.22
2018-01-11T22:29:57.192Z,87.20
2018-01-11T22:32:24.931Z,81.57
2018-01-11T22:34:52.680Z,79.80
2018-01-11T22:37:20.481Z,76.07
2018-01-11T22:39:48.224Z,77.53
2018-01-11T22:42:15.959Z,77.90
2018-01-11T22:44:43.800Z,71.90
2018-01-11T22:47:11.543Z,70.22
2018-01-11T22:49:40.044Z,83.20
2018-01-11T22:52:07.841Z,84.87
2018-01-11T22:54:35.584Z,77.37
2018-01-11T22:57:03.320Z,74.78
2018-01-11T22:59:31.112Z,83.30
2018-01-11T23:01:58.848Z,90.07
2018-01-11T23:04:26.583Z,87.05
2018-01-11T23:06:54.390Z,76.78
2018-01-11T23:09:22.120Z,85.75
2018-01-11T23:11:50.649Z,90.68
2018-01-11T23:14:18.454Z,97.15
2018-01-11T23:16:46.981Z,78.37
2018-01-11T23:19:14.715Z,85.30
2018-01-11T23:21:42.507Z,76.43
2018-01-11T23:24:10.240Z,90.75
2018-01-11T23:26:37.972Z,85.00
2018-01-11T23:29:05.765Z,77.78
2018-01-11T23:31:33.512Z,79.12
2018-01-11T23:34:02.009Z,80.35
2018-01-11T23:36:29.795Z,85.05
2018-01-11T23:38:57.531Z,85.80
2018-01-11T23:41:25.285Z,101.35
2018-01-11T23:43:53.075Z,91.12
2018-01-11T23:46:20.820Z,86.68
2018-01-11T23:48:48.556Z,81.40
2018-01-11T23:51:17.113Z,82.28
2018-01-11T23:53:44.852Z,106.37
2018-01-11T23:56:12.591Z,86.03
2018-01-11T23:58:40.394Z,87.10
